Time;durP1;ratioP1;P1;durP2;ratioP2;P2;SDS_P1;SDS_P2;PMS_P1;PMS_P2;Temp;Humidity;BMP_temperature;BMP_pressure;BME280_temperature;BME280_humidity;BME280_pressure;Samples;Min_cycle;Max_cycle;Signal;HPM_P1;HPM_P2
2021/10/14 00:00:45;;;;;;;10.30;6.55;;;;;;;;;;4935008;29;20031;-61
2021/10/14 00:03:11;;;;;;;11.32;6.55;;;;;;;;;;4935093;29;20499;-61
2021/10/14 00:05:38;;;;;;;8.48;6.20;;;;;;;;;;4935051;29;20027;-64
2021/10/14 00:08:04;;;;;;;9.05;5.90;;;;;;;;;;4935096;29;20031;-64
2021/10/14 00:10:30;;;;;;;6.85;5.70;;;;;;;;;;4934880;29;20480;-62
2021/10/14 00:12:57;;;;;;;9.75;6.13;;;;;;;;;;4934979;29;20133;-62
2021/10/14 00:15:23;;;;;;;8.05;5.38;;;;;;;;;;4935002;29;20388;-60
2021/10/14 00:17:49;;;;;;;8.93;6.07;;;;;;;;;;4934851;29;20460;-60
2021/10/14 00:20:15;;;;;;;8.88;6.25;;;;;;;;;;4934937;29;20039;-62
2021/10/14 00:22:41;;;;;;;9.90;6.05;;;;;;;;;;4935028;29;20448;-60
2021/10/14 00:25:08;;;;;;;9.10;5.68;;;;;;;;;;4934505;29;20472;-61
2021/10/14 00:27:35;;;;;;;9.25;5.90;;;;;;;;;;4934914;29;20047;-61
2021/10/14 00:30:01;;;;;;;9.52;6.10;;;;;;;;;;4934861;29;20023;-62
2021/10/14 00:32:27;;;;;;;7.60;5.63;;;;;;;;;;4934526;29;20099;-62
2021/10/14 00:34:53;;;;;;;9.45;6.28;;;;;;;;;;4934703;29;20039;-62
2021/10/14 00:37:19;;;;;;;8.10;5.70;;;;;;;;;;4934600;29;20036;-63
2021/10/14 00:39:45;;;;;;;10.35;6.38;;;;;;;;;;4935094;29;20035;-63
2021/10/14 00:42:14;;;;;;;8.13;5.95;;;;;;;;;;4934381;29;20090;-63
2021/10/14 00:44:48;;;;;;;9.52;6.07;;;;;;;;;;4934336;29;20035;-61
2021/10/14 00:47:18;;;;;;;10.93;6.00;;;;;;;;;;4934740;29;20480;-62
2021/10/14 00:49:44;;;;;;;8.88;6.28;;;;;;;;;;4934575;29;20028;-61
2021/10/14 00:52:10;;;;;;;9.93;5.70;;;;;;;;;;4934577;29;20032;-63
2021/10/14 00:54:36;;;;;;;9.80;6.03;;;;;;;;;;4934461;29;20043;-60
2021/10/14 00:57:03;;;;;;;8.88;5.45;;;;;;;;;;4934395;29;20059;-60
2021/10/14 00:59:30;;;;;;;11.30;6.05;;;;;;;;;;4934236;29;20106;-62
2021/10/14 01:01:56;;;;;;;9.70;5.70;;;;;;;;;;4934083;29;20067;-62
2021/10/14 01:04:22;;;;;;;8.82;5.75;;;;;;;;;;4934100;29;20027;-62
2021/10/14 01:06:48;;;;;;;9.27;5.63;;;;;;;;;;4934097;29;20027;-62
2021/10/14 01:09:16;;;;;;;9.88;5.72;;;;;;;;;;4934027;29;20024;-61
2021/10/14 01:11:42;;;;;;;10.50;5.82;;;;;;;;;;4932558;29;20875;-63
2021/10/14 01:14:08;;;;;;;9.13;5.40;;;;;;;;;;4933979;29;20744;-62
2021/10/14 01:16:44;;;;;;;8.65;5.75;;;;;;;;;;4933830;29;20074;-59
2021/10/14 01:19:11;;;;;;;10.20;5.60;;;;;;;;;;4934192;29;20094;-61
2021/10/14 01:21:38;;;;;;;8.90;5.55;;;;;;;;;;4934152;29;20019;-61
2021/10/14 01:24:04;;;;;;;9.00;5.78;;;;;;;;;;4933881;29;20063;-60
2021/10/14 01:26:31;;;;;;;9.60;5.60;;;;;;;;;;4933441;29;20032;-60
2021/10/14 01:28:57;;;;;;;8.68;5.20;;;;;;;;;;4933847;29;20027;-63
2021/10/14 01:31:23;;;;;;;8.82;5.10;;;;;;;;;;4933873;29;20043;-63
2021/10/14 01:33:49;;;;;;;12.18;5.45;;;;;;;;;;4933766;29;20028;-61
2021/10/14 01:36:16;;;;;;;7.57;5.05;;;;;;;;;;4934058;29;20122;-61
2021/10/14 01:38:42;;;;;;;7.40;5.38;;;;;;;;;;4934040;29;20028;-63
2021/10/14 01:41:08;;;;;;;9.50;5.68;;;;;;;;;;4933654;29;20058;-63
2021/10/14 01:43:34;;;;;;;10.93;5.82;;;;;;;;;;4933867;29;20035;-62
2021/10/14 01:46:01;;;;;;;9.85;5.03;;;;;;;;;;4933781;29;20099;-62
2021/10/14 01:48:28;;;;;;;10.23;5.43;;;;;;;;;;4934006;29;20102;-63
2021/10/14 01:50:54;;;;;;;8.43;5.20;;;;;;;;;;4933771;29;20019;-62
2021/10/14 01:53:20;;;;;;;9.93;5.15;;;;;;;;;;4933752;29;20381;-60
2021/10/14 01:55:46;;;;;;;10.02;5.22;;;;;;;;;;4933963;29;20027;-62
2021/10/14 01:58:12;;;;;;;9.52;5.15;;;;;;;;;;4937287;29;20035;-62
2021/10/14 02:00:38;;;;;;;8.63;5.20;;;;;;;;;;4937896;29;20082;-61
2021/10/14 02:03:05;;;;;;;8.27;5.65;;;;;;;;;;4939063;29;20028;-63
2021/10/14 02:05:31;;;;;;;8.95;5.47;;;;;;;;;;4938217;29;20376;-62
2021/10/14 02:07:57;;;;;;;10.10;5.90;;;;;;;;;;4937172;29;20447;-63
2021/10/14 02:10:23;;;;;;;10.80;6.00;;;;;;;;;;4937737;29;20027;-61
2021/10/14 02:12:49;;;;;;;8.63;5.63;;;;;;;;;;4937210;29;20110;-61
2021/10/14 02:15:15;;;;;;;9.50;5.93;;;;;;;;;;4937305;29;20043;-62
2021/10/14 02:17:44;;;;;;;8.43;5.63;;;;;;;;;;4937449;29;20031;-62
2021/10/14 02:20:11;;;;;;;12.73;6.10;;;;;;;;;;4937262;29;20472;-62
2021/10/14 02:22:37;;;;;;;10.32;5.65;;;;;;;;;;4937247;29;20036;-60
2021/10/14 02:25:04;;;;;;;9.95;5.20;;;;;;;;;;4937271;29;20032;-62
2021/10/14 02:27:30;;;;;;;13.10;6.22;;;;;;;;;;4936932;29;20036;-62
2021/10/14 02:29:56;;;;;;;7.82;5.35;;;;;;;;;;4936861;29;20392;-61
2021/10/14 02:32:22;;;;;;;9.60;5.43;;;;;;;;;;4936843;29;20062;-59
2021/10/14 02:34:48;;;;;;;7.40;5.10;;;;;;;;;;4937058;29;20488;-62
2021/10/14 02:37:15;;;;;;;7.15;4.90;;;;;;;;;;4937101;29;20027;-63
2021/10/14 02:39:41;;;;;;;10.43;5.45;;;;;;;;;;4936775;29;20028;-61
2021/10/14 02:42:07;;;;;;;10.23;5.60;;;;;;;;;;4936318;29;20062;-61
2021/10/14 02:44:33;;;;;;;8.90;5.30;;;;;;;;;;4936770;29;20099;-62
2021/10/14 02:46:59;;;;;;;9.15;5.35;;;;;;;;;;4936546;29;20130;-63
2021/10/14 02:49:25;;;;;;;7.95;5.30;;;;;;;;;;4936733;29;20066;-64
2021/10/14 02:51:51;;;;;;;10.32;6.57;;;;;;;;;;4936715;29;20035;-64
2021/10/14 02:54:17;;;;;;;8.23;5.72;;;;;;;;;;4935707;29;20031;-64
2021/10/14 02:56:43;;;;;;;10.30;6.38;;;;;;;;;;4936199;29;20758;-63
2021/10/14 02:59:11;;;;;;;9.68;6.70;;;;;;;;;;4936054;29;20392;-61
2021/10/14 03:01:37;;;;;;;9.40;6.95;;;;;;;;;;4936373;29;20028;-63
2021/10/14 03:04:03;;;;;;;10.43;7.65;;;;;;;;;;4936251;29;20027;-63
2021/10/14 03:06:29;;;;;;;11.48;7.20;;;;;;;;;;4936022;29;20044;-63
2021/10/14 03:08:55;;;;;;;11.82;8.05;;;;;;;;;;4934101;29;20058;-62
2021/10/14 03:11:21;;;;;;;15.13;8.85;;;;;;;;;;4935840;29;20118;-62
2021/10/14 03:13:47;;;;;;;16.45;9.90;;;;;;;;;;4935748;29;20035;-62
2021/10/14 03:16:13;;;;;;;16.30;10.90;;;;;;;;;;4936051;29;20086;-62
2021/10/14 03:18:39;;;;;;;14.38;10.73;;;;;;;;;;4935972;29;20037;-63
2021/10/14 03:21:05;;;;;;;14.82;10.77;;;;;;;;;;4936077;29;20064;-62
2021/10/14 03:23:32;;;;;;;14.07;10.48;;;;;;;;;;4935904;29;20050;-62
2021/10/14 03:25:58;;;;;;;14.15;11.40;;;;;;;;;;4936031;29;20043;-62
2021/10/14 03:28:24;;;;;;;14.98;11.43;;;;;;;;;;4935834;29;20028;-62
2021/10/14 03:30:50;;;;;;;19.70;11.70;;;;;;;;;;4936066;29;20058;-62
2021/10/14 03:33:16;;;;;;;15.50;11.07;;;;;;;;;;4935655;29;20377;-63
2021/10/14 03:35:42;;;;;;;16.55;11.65;;;;;;;;;;4935855;29;20039;-64
2021/10/14 03:38:08;;;;;;;18.55;11.60;;;;;;;;;;4935816;29;20110;-63
2021/10/14 03:40:34;;;;;;;15.15;11.10;;;;;;;;;;4935527;29;20032;-60
2021/10/14 03:43:00;;;;;;;15.52;10.45;;;;;;;;;;4935673;29;20036;-63
2021/10/14 03:45:26;;;;;;;17.45;10.60;;;;;;;;;;4935527;29;20055;-62
2021/10/14 03:47:52;;;;;;;17.40;10.43;;;;;;;;;;4935583;29;20059;-61
2021/10/14 03:50:18;;;;;;;12.35;9.65;;;;;;;;;;4935364;29;20028;-63
2021/10/14 03:52:44;;;;;;;13.45;9.82;;;;;;;;;;4935379;29;20028;-62
2021/10/14 03:55:10;;;;;;;13.30;9.85;;;;;;;;;;4935666;29;20562;-60
2021/10/14 03:57:36;;;;;;;12.77;8.90;;;;;;;;;;4935435;29;20040;-62
2021/10/14 04:00:04;;;;;;;14.38;9.07;;;;;;;;;;4935410;29;20074;-61
2021/10/14 04:02:30;;;;;;;16.92;8.70;;;;;;;;;;4935312;29;20034;-63
2021/10/14 04:04:56;;;;;;;14.35;8.77;;;;;;;;;;4935323;29;20028;-64
2021/10/14 04:07:22;;;;;;;14.85;8.40;;;;;;;;;;4935413;29;20036;-64
2021/10/14 04:09:48;;;;;;;14.50;8.85;;;;;;;;;;4933472;29;20031;-62
2021/10/14 04:12:14;;;;;;;10.88;8.00;;;;;;;;;;4935028;29;20033;-60
2021/10/14 04:14:40;;;;;;;11.98;8.15;;;;;;;;;;4935304;29;20052;-64
2021/10/14 04:17:06;;;;;;;11.15;7.75;;;;;;;;;;4935007;29;20075;-62
2021/10/14 04:19:32;;;;;;;11.20;7.60;;;;;;;;;;4934570;29;20071;-62
2021/10/14 04:21:59;;;;;;;13.20;8.07;;;;;;;;;;4935153;29;20135;-64
2021/10/14 04:24:27;;;;;;;11.07;7.63;;;;;;;;;;4934981;29;20027;-62
2021/10/14 04:26:53;;;;;;;11.35;7.35;;;;;;;;;;4934739;29;20046;-61
2021/10/14 04:29:19;;;;;;;17.58;7.82;;;;;;;;;;4934639;29;20440;-61
2021/10/14 04:31:45;;;;;;;13.30;8.13;;;;;;;;;;4934658;29;20035;-61
2021/10/14 04:34:11;;;;;;;10.95;7.38;;;;;;;;;;4934629;29;20052;-61
2021/10/14 04:36:38;;;;;;;12.57;7.53;;;;;;;;;;4934503;29;20118;-60
2021/10/14 04:39:04;;;;;;;14.10;8.10;;;;;;;;;;4934733;29;20468;-62
2021/10/14 04:41:30;;;;;;;11.50;7.45;;;;;;;;;;4934193;29;20082;-61
2021/10/14 04:43:57;;;;;;;12.05;7.53;;;;;;;;;;4933056;29;20024;-62
2021/10/14 04:46:23;;;;;;;9.27;7.32;;;;;;;;;;4934389;29;20052;-60
2021/10/14 04:48:49;;;;;;;14.38;8.18;;;;;;;;;;4934714;29;20027;-63
2021/10/14 04:51:15;;;;;;;12.90;8.48;;;;;;;;;;4934916;29;20028;-63
2021/10/14 04:53:41;;;;;;;13.82;9.15;;;;;;;;;;4934324;29;20028;-62
2021/10/14 04:56:07;;;;;;;14.95;9.82;;;;;;;;;;4934366;29;20039;-62
2021/10/14 04:58:33;;;;;;;16.52;10.40;;;;;;;;;;4934178;29;20063;-62
2021/10/14 05:00:59;;;;;;;13.23;9.18;;;;;;;;;;4934222;29;20408;-63
2021/10/14 05:03:25;;;;;;;14.57;10.43;;;;;;;;;;4934136;29;20095;-61
2021/10/14 05:05:51;;;;;;;14.90;10.43;;;;;;;;;;4934312;29;20075;-61
2021/10/14 05:08:17;;;;;;;15.32;10.63;;;;;;;;;;4934210;29;20035;-61
2021/10/14 05:10:44;;;;;;;21.58;12.52;;;;;;;;;;4934198;29;20040;-62
2021/10/14 05:13:10;;;;;;;17.35;11.15;;;;;;;;;;4933796;29;20035;-62
2021/10/14 05:15:38;;;;;;;15.35;11.18;;;;;;;;;;4934163;29;20123;-61
2021/10/14 05:18:05;;;;;;;18.42;12.27;;;;;;;;;;4933945;29;20031;-60
2021/10/14 05:20:31;;;;;;;17.38;11.63;;;;;;;;;;4934095;29;20111;-62
2021/10/14 05:22:57;;;;;;;16.83;12.25;;;;;;;;;;4933936;29;20111;-60
2021/10/14 05:25:23;;;;;;;15.95;11.88;;;;;;;;;;4932255;29;20087;-64
2021/10/14 05:27:49;;;;;;;19.42;12.38;;;;;;;;;;4934050;29;20111;-63
2021/10/14 05:30:16;;;;;;;17.60;13.23;;;;;;;;;;4934099;29;20432;-63
2021/10/14 05:32:42;;;;;;;20.58;14.32;;;;;;;;;;4933944;29;20089;-65
2021/10/14 05:35:08;;;;;;;22.88;14.13;;;;;;;;;;4933658;29;20103;-64
2021/10/14 05:37:35;;;;;;;19.92;13.68;;;;;;;;;;4933931;29;20052;-61
2021/10/14 05:40:01;;;;;;;23.98;13.82;;;;;;;;;;4933728;29;20027;-64
2021/10/14 05:42:27;;;;;;;22.42;13.38;;;;;;;;;;4931896;29;20047;-63
2021/10/14 05:44:53;;;;;;;28.67;17.58;;;;;;;;;;4933629;29;20160;-63
2021/10/14 05:47:20;;;;;;;22.20;14.65;;;;;;;;;;4933563;29;20087;-62
2021/10/14 05:49:46;;;;;;;18.45;12.57;;;;;;;;;;4933838;29;20439;-61
2021/10/14 05:52:12;;;;;;;16.85;11.75;;;;;;;;;;4933791;29;20091;-62
2021/10/14 05:54:38;;;;;;;14.45;10.60;;;;;;;;;;4933680;29;20051;-64
2021/10/14 05:57:04;;;;;;;18.08;11.45;;;;;;;;;;4933561;29;20039;-62
2021/10/14 05:59:30;;;;;;;21.55;15.38;;;;;;;;;;4930484;29;20024;-62
2021/10/14 06:01:56;;;;;;;23.23;17.92;;;;;;;;;;4932569;29;20405;-60
2021/10/14 06:04:22;;;;;;;23.95;16.55;;;;;;;;;;4931907;29;20106;-62
2021/10/14 06:06:48;;;;;;;21.90;14.40;;;;;;;;;;4931981;29;20028;-61
2021/10/14 06:09:14;;;;;;;16.23;12.13;;;;;;;;;;4932175;29;20028;-62
2021/10/14 06:11:40;;;;;;;13.95;11.05;;;;;;;;;;4932091;29;20121;-63
2021/10/14 06:14:06;;;;;;;14.93;11.10;;;;;;;;;;4931415;29;20074;-61
2021/10/14 06:16:32;;;;;;;14.50;10.30;;;;;;;;;;4931954;29;20036;-61
2021/10/14 06:18:58;;;;;;;16.92;11.25;;;;;;;;;;4932863;29;20462;-62
2021/10/14 06:21:24;;;;;;;17.60;11.32;;;;;;;;;;4932447;29;20474;-63
2021/10/14 06:23:50;;;;;;;17.17;11.98;;;;;;;;;;4933303;29;20016;-62
2021/10/14 06:26:17;;;;;;;17.60;11.38;;;;;;;;;;4933141;29;20079;-60
2021/10/14 06:28:43;;;;;;;18.42;11.65;;;;;;;;;;4932700;29;20032;-62
2021/10/14 06:31:09;;;;;;;13.77;10.88;;;;;;;;;;4932840;29;20039;-59
2021/10/14 06:33:35;;;;;;;19.38;11.63;;;;;;;;;;4932577;29;20027;-65
2021/10/14 06:36:01;;;;;;;17.63;12.07;;;;;;;;;;4932845;29;20114;-68
2021/10/14 06:38:27;;;;;;;20.98;13.93;;;;;;;;;;4932652;29;20038;-56
2021/10/14 06:40:53;;;;;;;19.88;12.85;;;;;;;;;;4932108;29;20051;-67
2021/10/14 06:43:19;;;;;;;16.20;12.73;;;;;;;;;;4933379;29;20495;-60
2021/10/14 06:45:45;;;;;;;16.77;12.40;;;;;;;;;;4935255;29;20110;-59
2021/10/14 06:48:11;;;;;;;21.23;13.98;;;;;;;;;;4935315;29;20039;-66
2021/10/14 06:50:37;;;;;;;18.42;13.57;;;;;;;;;;4935584;29;20027;-59
2021/10/14 06:53:08;;;;;;;22.25;13.82;;;;;;;;;;4933435;29;20059;-60
2021/10/14 06:55:34;;;;;;;18.65;14.23;;;;;;;;;;4935639;29;20038;-64
2021/10/14 06:58:00;;;;;;;18.00;13.23;;;;;;;;;;4934823;29;20071;-58
2021/10/14 07:00:26;;;;;;;20.00;13.50;;;;;;;;;;4934939;29;20110;-57
2021/10/14 07:02:52;;;;;;;19.80;13.88;;;;;;;;;;4934682;29;20484;-59
2021/10/14 07:05:18;;;;;;;21.50;13.60;;;;;;;;;;4934481;29;20496;-57
2021/10/14 07:07:44;;;;;;;19.25;13.15;;;;;;;;;;4934738;29;20079;-62
2021/10/14 07:10:11;;;;;;;18.45;13.52;;;;;;;;;;4934850;29;20482;-62
2021/10/14 07:12:39;;;;;;;18.35;13.30;;;;;;;;;;4932137;29;20035;-57
2021/10/14 07:15:05;;;;;;;19.52;13.00;;;;;;;;;;4934680;29;20086;-62
2021/10/14 07:17:31;;;;;;;17.73;12.82;;;;;;;;;;4934812;29;20358;-57
2021/10/14 07:19:58;;;;;;;22.58;12.82;;;;;;;;;;4935260;29;20028;-60
2021/10/14 07:22:24;;;;;;;19.63;13.70;;;;;;;;;;4935408;29;20059;-57
2021/10/14 07:24:50;;;;;;;18.42;13.70;;;;;;;;;;4934931;29;20795;-58
2021/10/14 07:27:16;;;;;;;19.23;13.25;;;;;;;;;;4935062;29;20047;-58
2021/10/14 07:29:42;;;;;;;18.90;13.50;;;;;;;;;;4935166;29;20063;-62
2021/10/14 07:32:08;;;;;;;20.67;13.40;;;;;;;;;;4935383;29;20031;-59
2021/10/14 07:34:35;;;;;;;19.38;13.43;;;;;;;;;;4935674;29;20027;-59
2021/10/14 07:37:01;;;;;;;20.30;14.18;;;;;;;;;;4935697;29;20444;-59
2021/10/14 07:39:27;;;;;;;17.80;13.88;;;;;;;;;;4935682;29;20023;-61
2021/10/14 07:41:53;;;;;;;20.67;12.90;;;;;;;;;;4935410;29;20127;-61
2021/10/14 07:44:19;;;;;;;17.92;13.73;;;;;;;;;;4935387;29;20031;-61
2021/10/14 07:46:45;;;;;;;20.90;13.45;;;;;;;;;;4918235;29;20377;-60
2021/10/14 07:49:12;;;;;;;21.25;13.93;;;;;;;;;;4935607;29;20059;-60
2021/10/14 07:51:38;;;;;;;19.17;13.07;;;;;;;;;;4935448;29;20059;-59
2021/10/14 07:54:05;;;;;;;21.55;13.60;;;;;;;;;;4934201;29;20023;-59
2021/10/14 07:56:32;;;;;;;21.05;14.55;;;;;;;;;;4934983;29;20085;-59
2021/10/14 07:58:58;;;;;;;20.38;14.00;;;;;;;;;;4915519;29;20028;-59
2021/10/14 08:01:24;;;;;;;22.17;15.07;;;;;;;;;;4916319;29;20119;-60
2021/10/14 08:03:50;;;;;;;18.08;13.30;;;;;;;;;;4916090;29;20028;-59
2021/10/14 08:06:16;;;;;;;19.20;13.75;;;;;;;;;;4916373;29;20040;-60
2021/10/14 08:08:43;;;;;;;22.85;14.00;;;;;;;;;;4916057;29;20189;-60
2021/10/14 08:11:09;;;;;;;19.73;13.98;;;;;;;;;;4915923;29;20106;-59
2021/10/14 08:13:35;;;;;;;18.63;13.18;;;;;;;;;;4915835;29;20202;-60
2021/10/14 08:16:01;;;;;;;19.27;14.80;;;;;;;;;;4915789;29;20464;-62
2021/10/14 08:18:27;;;;;;;20.10;13.65;;;;;;;;;;4916072;29;20031;-59
2021/10/14 08:20:54;;;;;;;20.85;13.27;;;;;;;;;;4916176;29;20040;-60
2021/10/14 08:23:21;;;;;;;16.00;11.70;;;;;;;;;;4916004;29;20031;-60
2021/10/14 08:25:48;;;;;;;17.80;12.48;;;;;;;;;;4915740;29;20036;-60
2021/10/14 08:28:14;;;;;;;19.05;12.35;;;;;;;;;;4915640;29;20048;-62
2021/10/14 08:30:42;;;;;;;18.52;12.57;;;;;;;;;;4915201;29;20025;-61
2021/10/14 08:33:08;;;;;;;19.08;12.07;;;;;;;;;;4915664;29;20039;-60
2021/10/14 08:35:37;;;;;;;17.30;11.48;;;;;;;;;;4915493;29;20035;-60
2021/10/14 08:38:08;;;;;;;13.93;10.75;;;;;;;;;;4915501;29;20527;-60
2021/10/14 08:40:35;;;;;;;18.48;11.40;;;;;;;;;;4914376;29;20028;-60
2021/10/14 08:43:04;;;;;;;14.25;11.18;;;;;;;;;;4915028;29;20440;-60
2021/10/14 08:45:33;;;;;;;15.05;10.80;;;;;;;;;;4915276;29;20071;-60
2021/10/14 08:48:01;;;;;;;18.20;11.15;;;;;;;;;;4915208;29;20040;-59
2021/10/14 08:50:27;;;;;;;16.33;11.05;;;;;;;;;;4915405;29;20422;-60
2021/10/14 08:52:53;;;;;;;17.67;11.32;;;;;;;;;;4915415;29;20044;-60
2021/10/14 08:55:20;;;;;;;17.25;11.77;;;;;;;;;;4914251;29;20024;-59
2021/10/14 08:57:46;;;;;;;18.15;11.63;;;;;;;;;;4915196;29;20036;-61
2021/10/14 09:00:13;;;;;;;16.85;11.00;;;;;;;;;;4914689;29;20036;-59
2021/10/14 09:02:40;;;;;;;17.92;11.90;;;;;;;;;;4914967;29;20108;-60
2021/10/14 09:05:09;;;;;;;16.40;12.32;;;;;;;;;;4914770;29;20036;-59
2021/10/14 09:07:35;;;;;;;14.77;11.45;;;;;;;;;;4915095;29;20111;-59
2021/10/14 09:10:03;;;;;;;19.40;11.80;;;;;;;;;;4914268;29;20039;-59
2021/10/14 09:12:33;;;;;;;20.73;12.27;;;;;;;;;;4914825;29;20422;-58
2021/10/14 09:15:01;;;;;;;19.35;11.90;;;;;;;;;;4915004;29;20088;-58
2021/10/14 09:17:43;;;;;;;18.15;11.38;;;;;;;;;;4915047;29;20060;-59
2021/10/14 09:20:24;;;;;;;15.60;11.65;;;;;;;;;;4915071;29;20020;-59
2021/10/14 09:23:01;;;;;;;15.77;11.32;;;;;;;;;;4914470;29;20421;-59
2021/10/14 09:25:38;;;;;;;16.10;10.73;;;;;;;;;;4897127;29;20378;-58
2021/10/14 09:28:16;;;;;;;13.57;10.00;;;;;;;;;;4914482;29;20072;-59
2021/10/14 09:30:43;;;;;;;15.68;11.23;;;;;;;;;;4914552;29;20104;-61
2021/10/14 09:33:26;;;;;;;15.32;11.05;;;;;;;;;;4914602;29;20036;-59
2021/10/14 09:35:52;;;;;;;17.45;11.82;;;;;;;;;;4914528;29;20047;-60
2021/10/14 09:38:32;;;;;;;18.13;12.85;;;;;;;;;;4914193;29;20075;-61
2021/10/14 09:41:05;;;;;;;18.67;12.15;;;;;;;;;;4914200;29;20040;-59
2021/10/14 09:43:31;;;;;;;20.00;13.02;;;;;;;;;;4914328;29;20035;-60
2021/10/14 09:45:57;;;;;;;21.67;15.07;;;;;;;;;;4914203;29;20044;-59
2021/10/14 09:48:23;;;;;;;17.95;13.35;;;;;;;;;;4914569;29;20503;-61
2021/10/14 09:50:50;;;;;;;15.32;10.93;;;;;;;;;;4914249;29;20115;-59
2021/10/14 09:53:17;;;;;;;16.40;10.90;;;;;;;;;;4914505;29;20029;-58
2021/10/14 09:55:44;;;;;;;15.13;10.98;;;;;;;;;;4914475;29;20493;-60
2021/10/14 09:58:10;;;;;;;15.98;10.85;;;;;;;;;;4913947;29;20029;-59
2021/10/14 10:00:37;;;;;;;14.40;10.52;;;;;;;;;;4913636;29;20111;-59
2021/10/14 10:03:07;;;;;;;12.43;9.63;;;;;;;;;;4914421;29;20031;-60
2021/10/14 10:05:34;;;;;;;13.63;10.13;;;;;;;;;;4914320;29;20028;-59
2021/10/14 10:08:03;;;;;;;13.10;9.68;;;;;;;;;;4914320;29;20051;-59
2021/10/14 10:10:30;;;;;;;12.57;9.43;;;;;;;;;;4914185;29;20547;-60
2021/10/14 10:12:58;;;;;;;12.40;9.13;;;;;;;;;;4914101;29;20040;-60
2021/10/14 10:15:40;;;;;;;13.43;9.48;;;;;;;;;;4914191;29;20036;-59
2021/10/14 10:18:24;;;;;;;15.70;9.73;;;;;;;;;;4916102;29;20031;-61
2021/10/14 10:20:51;;;;;;;21.40;13.38;;;;;;;;;;4917978;29;20519;-61
2021/10/14 10:23:37;;;;;;;17.35;11.10;;;;;;;;;;4916765;29;20476;-59
2021/10/14 10:26:03;;;;;;;12.27;9.32;;;;;;;;;;4917677;29;20036;-60
2021/10/14 10:28:38;;;;;;;14.30;10.75;;;;;;;;;;4917350;29;20035;-59
2021/10/14 10:31:05;;;;;;;14.30;11.02;;;;;;;;;;4917573;29;20027;-60
2021/10/14 10:33:56;;;;;;;13.68;10.30;;;;;;;;;;4916809;29;20032;-61
2021/10/14 10:36:41;;;;;;;16.17;9.85;;;;;;;;;;4917618;29;20063;-60
2021/10/14 10:39:07;;;;;;;25.85;15.85;;;;;;;;;;4917578;29;20028;-59
2021/10/14 10:41:33;;;;;;;31.90;19.35;;;;;;;;;;4917032;29;20131;-59
2021/10/14 10:43:59;;;;;;;19.02;13.27;;;;;;;;;;4916923;29;20112;-59
2021/10/14 10:46:31;;;;;;;15.90;11.50;;;;;;;;;;4917321;29;20044;-61
2021/10/14 10:49:17;;;;;;;15.23;10.30;;;;;;;;;;4917146;29;20024;-59
2021/10/14 10:51:43;;;;;;;14.45;10.15;;;;;;;;;;4917013;29;20064;-62
2021/10/14 10:54:28;;;;;;;14.63;10.93;;;;;;;;;;4916870;29;20040;-63
2021/10/14 10:56:55;;;;;;;14.57;10.27;;;;;;;;;;4916401;29;20035;-60
2021/10/14 10:59:21;;;;;;;15.30;9.15;;;;;;;;;;4915887;29;20024;-62
2021/10/14 11:01:47;;;;;;;12.95;9.68;;;;;;;;;;4916043;29;20496;-60
2021/10/14 11:04:14;;;;;;;16.95;10.60;;;;;;;;;;4915365;29;20032;-59
2021/10/14 11:06:40;;;;;;;15.85;10.07;;;;;;;;;;4915852;29;20067;-58
2021/10/14 11:09:11;;;;;;;15.05;9.52;;;;;;;;;;4898879;29;20455;-61
2021/10/14 11:11:37;;;;;;;13.43;9.15;;;;;;;;;;4916469;29;20028;-64
2021/10/14 11:14:04;;;;;;;14.18;9.07;;;;;;;;;;4916778;29;20036;-59
2021/10/14 11:16:31;;;;;;;11.77;8.70;;;;;;;;;;4916477;29;20032;-63
2021/10/14 11:18:58;;;;;;;12.75;8.93;;;;;;;;;;4916419;29;20107;-60
2021/10/14 11:21:25;;;;;;;13.18;8.63;;;;;;;;;;4916249;29;20028;-62
2021/10/14 11:23:53;;;;;;;13.27;9.00;;;;;;;;;;4916453;29;20477;-61
2021/10/14 11:26:42;;;;;;;14.02;9.00;;;;;;;;;;4916447;29;20071;-63
2021/10/14 11:29:23;;;;;;;13.05;8.93;;;;;;;;;;4916104;29;20101;-62
2021/10/14 11:31:53;;;;;;;16.35;10.63;;;;;;;;;;4916234;29;20083;-63
2021/10/14 11:34:23;;;;;;;18.85;11.27;;;;;;;;;;4916352;29;20369;-61
2021/10/14 11:36:49;;;;;;;16.55;10.60;;;;;;;;;;4916550;29;20039;-63
2021/10/14 11:39:15;;;;;;;16.55;10.75;;;;;;;;;;4916324;29;20051;-63
2021/10/14 11:41:42;;;;;;;16.80;10.32;;;;;;;;;;4916288;29;20052;-63
2021/10/14 11:44:09;;;;;;;14.73;8.80;;;;;;;;;;4915856;29;20495;-63
2021/10/14 11:46:37;;;;;;;18.30;11.73;;;;;;;;;;4915998;29;20457;-65
2021/10/14 11:49:04;;;;;;;16.13;10.38;;;;;;;;;;4916008;29;20459;-64
2021/10/14 11:51:30;;;;;;;18.65;10.82;;;;;;;;;;4934824;29;20028;-65
2021/10/14 11:53:58;;;;;;;12.07;7.65;;;;;;;;;;4934145;29;20020;-69
2021/10/14 11:56:25;;;;;;;11.20;7.88;;;;;;;;;;4934834;29;20020;-66
2021/10/14 11:58:51;;;;;;;19.60;11.45;;;;;;;;;;4934920;29;20498;-65
2021/10/14 12:01:21;;;;;;;18.92;11.45;;;;;;;;;;4934130;29;20028;-66
2021/10/14 12:03:47;;;;;;;22.20;12.25;;;;;;;;;;4931908;29;20027;-63
2021/10/14 12:06:13;;;;;;;16.05;10.38;;;;;;;;;;4934252;29;20027;-63
2021/10/14 12:08:40;;;;;;;10.85;8.07;;;;;;;;;;4934795;29;20110;-65
2021/10/14 12:11:15;;;;;;;13.32;8.80;;;;;;;;;;4934604;29;20047;-65
2021/10/14 12:13:41;;;;;;;18.77;11.43;;;;;;;;;;4934645;29;20037;-63
2021/10/14 12:16:08;;;;;;;18.90;12.30;;;;;;;;;;4934493;29;20032;-63
2021/10/14 12:18:34;;;;;;;16.45;10.75;;;;;;;;;;4934745;29;20023;-62
2021/10/14 12:21:00;;;;;;;15.68;11.88;;;;;;;;;;4934643;29;20399;-64
2021/10/14 12:23:29;;;;;;;12.93;9.30;;;;;;;;;;4934783;29;20036;-67
2021/10/14 12:26:11;;;;;;;13.90;9.60;;;;;;;;;;4934294;29;20031;-62
2021/10/14 12:28:41;;;;;;;13.82;10.07;;;;;;;;;;4934229;29;20034;-64
2021/10/14 12:31:16;;;;;;;11.35;7.88;;;;;;;;;;4934333;29;20016;-65
2021/10/14 12:33:42;;;;;;;12.55;8.00;;;;;;;;;;4934151;29;20031;-62
2021/10/14 12:36:08;;;;;;;12.00;7.72;;;;;;;;;;4934014;29;20492;-66
2021/10/14 12:38:37;;;;;;;12.27;7.43;;;;;;;;;;4934529;29;20031;-66
2021/10/14 12:41:06;;;;;;;11.73;8.15;;;;;;;;;;4933491;29;20404;-62
2021/10/14 12:43:38;;;;;;;12.85;8.27;;;;;;;;;;4934272;29;20102;-62
2021/10/14 12:46:12;;;;;;;;;;;;;;;;;;4934658;29;20044;-61
2021/10/14 12:48:46;;;;;;;11.52;8.80;;;;;;;;;;4934199;29;19958;-68
2021/10/14 12:51:25;;;;;;;12.10;8.40;;;;;;;;;;4934225;29;20034;-68
2021/10/14 12:53:54;;;;;;;12.95;9.13;;;;;;;;;;4934096;29;20043;-68
2021/10/14 12:56:20;;;;;;;13.43;9.07;;;;;;;;;;4934266;29;20024;-73
2021/10/14 12:58:47;;;;;;;10.85;8.07;;;;;;;;;;4917119;29;20039;-65
2021/10/14 13:01:17;;;;;;;12.15;7.97;;;;;;;;;;4929723;29;20051;-72
2021/10/14 13:03:43;;;;;;;14.88;9.75;;;;;;;;;;4934329;29;20031;-64
2021/10/14 13:06:10;;;;;;;15.95;9.98;;;;;;;;;;4932894;29;20030;-69
2021/10/14 13:08:40;;;;;;;16.70;10.63;;;;;;;;;;4931848;29;20071;-67
2021/10/14 13:11:07;;;;;;;15.40;10.23;;;;;;;;;;4931802;29;20043;-73
2021/10/14 13:13:33;;;;;;;16.27;10.80;;;;;;;;;;4932711;29;20058;-68
2021/10/14 13:16:00;;;;;;;14.85;9.52;;;;;;;;;;4931682;29;20040;-68
2021/10/14 13:18:26;;;;;;;15.38;10.23;;;;;;;;;;4932116;29;20106;-66
2021/10/14 13:20:56;;;;;;;17.40;12.30;;;;;;;;;;4931599;29;20067;-63
2021/10/14 13:23:22;;;;;;;16.55;10.57;;;;;;;;;;4930754;29;20042;-65
2021/10/14 13:25:52;;;;;;;20.33;12.95;;;;;;;;;;4929368;29;20499;-66
2021/10/14 13:28:18;;;;;;;19.92;10.68;;;;;;;;;;4931825;29;20083;-70
2021/10/14 13:30:44;;;;;;;19.08;10.50;;;;;;;;;;4931618;29;20020;-64
2021/10/14 13:33:10;;;;;;;32.80;18.80;;;;;;;;;;4929208;29;20038;-67
2021/10/14 13:35:38;;;;;;;24.80;13.68;;;;;;;;;;4923285;29;20044;-62
2021/10/14 13:38:05;;;;;;;131.40;66.75;;;;;;;;;;4932407;29;20034;-64
2021/10/14 13:40:31;;;;;;;22.48;14.43;;;;;;;;;;4932015;29;20539;-63
2021/10/14 13:42:57;;;;;;;25.58;14.82;;;;;;;;;;4932574;29;20067;-64
2021/10/14 13:45:23;;;;;;;18.85;10.73;;;;;;;;;;4932470;29;20047;-64
2021/10/14 13:47:49;;;;;;;16.45;9.75;;;;;;;;;;4931920;29;20044;-65
2021/10/14 13:50:15;;;;;;;17.15;10.40;;;;;;;;;;4931653;29;20032;-63
2021/10/14 13:52:41;;;;;;;13.98;8.23;;;;;;;;;;4933998;29;20126;-65
2021/10/14 13:55:07;;;;;;;20.52;11.63;;;;;;;;;;4936577;29;20043;-70
2021/10/14 13:57:34;;;;;;;14.35;9.65;;;;;;;;;;4936574;29;20038;-63
2021/10/14 14:00:00;;;;;;;15.70;8.85;;;;;;;;;;4935046;29;20034;-61
2021/10/14 14:02:26;;;;;;;18.83;9.63;;;;;;;;;;4935641;29;20039;-62
2021/10/14 14:04:52;;;;;;;18.00;10.18;;;;;;;;;;4936616;29;20110;-61
2021/10/14 14:07:18;;;;;;;18.52;10.68;;;;;;;;;;4935756;29;20047;-62
2021/10/14 14:09:44;;;;;;;15.60;10.10;;;;;;;;;;4936481;29;20032;-70
2021/10/14 14:12:10;;;;;;;19.23;10.60;;;;;;;;;;4919475;29;20044;-62
2021/10/14 14:14:36;;;;;;;15.98;11.40;;;;;;;;;;4936656;29;20491;-62
2021/10/14 14:17:03;;;;;;;17.20;10.88;;;;;;;;;;4936622;29;20036;-69
2021/10/14 14:19:29;;;;;;;20.83;11.65;;;;;;;;;;4937155;29;20027;-66
2021/10/14 14:21:55;;;;;;;16.48;10.93;;;;;;;;;;4937423;29;20030;-64
2021/10/14 14:24:21;;;;;;;15.73;10.45;;;;;;;;;;4936832;29;20075;-64
2021/10/14 14:26:47;;;;;;;18.05;10.32;;;;;;;;;;4936774;29;20044;-70